sensor_id;sensor_type;location;lat;lon;timestamp;P1;durP1;ratioP1;P2;durP2;ratioP2
41815;SDS011;27814;53.452;-6.180;2022-12-07T00:02:05;9.48;;;4.00;;
41815;SDS011;27814;53.452;-6.180;2022-12-07T00:04:34;9.32;;;3.67;;
41815;SDS011;27814;53.452;-6.180;2022-12-07T00:07:04;8.25;;;3.40;;
41815;SDS011;27814;53.452;-6.180;2022-12-07T00:09:32;11.50;;;4.38;;
41815;SDS011;27814;53.452;-6.180;2022-12-07T00:12:01;11.18;;;4.65;;
41815;SDS011;27814;53.452;-6.180;2022-12-07T00:14:29;10.10;;;4.07;;
41815;SDS011;27814;53.452;-6.180;2022-12-07T00:16:58;10.23;;;4.55;;
41815;SDS011;27814;53.452;-6.180;2022-12-07T00:19:27;8.85;;;4.07;;
41815;SDS011;27814;53.452;-6.180;2022-12-07T00:21:56;8.63;;;4.00;;
41815;SDS011;27814;53.452;-6.180;2022-12-07T00:24:33;8.93;;;3.55;;
41815;SDS011;27814;53.452;-6.180;2022-12-07T00:27:01;7.78;;;3.42;;
41815;SDS011;27814;53.452;-6.180;2022-12-07T00:29:29;6.30;;;3.35;;
41815;SDS011;27814;53.452;-6.180;2022-12-07T00:31:58;8.48;;;3.53;;
41815;SDS011;27814;53.452;-6.180;2022-12-07T00:34:26;7.68;;;3.45;;
41815;SDS011;27814;53.452;-6.180;2022-12-07T00:36:55;9.10;;;3.65;;
41815;SDS011;27814;53.452;-6.180;2022-12-07T00:39:28;13.48;;;3.67;;
41815;SDS011;27814;53.452;-6.180;2022-12-07T00:41:57;7.50;;;3.28;;
41815;SDS011;27814;53.452;-6.180;2022-12-07T00:44:26;7.65;;;3.70;;
41815;SDS011;27814;53.452;-6.180;2022-12-07T00:46:58;7.10;;;3.42;;
41815;SDS011;27814;53.452;-6.180;2022-12-07T00:49:27;7.67;;;2.87;;
41815;SDS011;27814;53.452;-6.180;2022-12-07T00:51:59;8.25;;;3.10;;
41815;SDS011;27814;53.452;-6.180;2022-12-07T00:54:28;7.53;;;2.95;;
41815;SDS011;27814;53.452;-6.180;2022-12-07T00:56:57;7.60;;;2.80;;
41815;SDS011;27814;53.452;-6.180;2022-12-07T00:59:25;7.40;;;2.80;;
41815;SDS011;27814;53.452;-6.180;2022-12-07T01:01:54;7.40;;;2.92;;
41815;SDS011;27814;53.452;-6.180;2022-12-07T01:04:22;6.60;;;2.63;;
41815;SDS011;27814;53.452;-6.180;2022-12-07T01:06:50;7.72;;;2.80;;
41815;SDS011;27814;53.452;-6.180;2022-12-07T01:09:20;6.72;;;2.70;;
41815;SDS011;27814;53.452;-6.180;2022-12-07T01:11:52;5.68;;;2.85;;
41815;SDS011;27814;53.452;-6.180;2022-12-07T01:14:20;7.15;;;2.60;;
41815;SDS011;27814;53.452;-6.180;2022-12-07T01:16:48;8.43;;;2.50;;
41815;SDS011;27814;53.452;-6.180;2022-12-07T01:19:17;6.30;;;2.30;;
41815;SDS011;27814;53.452;-6.180;2022-12-07T01:21:45;7.53;;;2.63;;
41815;SDS011;27814;53.452;-6.180;2022-12-07T01:24:14;5.97;;;2.40;;
41815;SDS011;27814;53.452;-6.180;2022-12-07T01:26:42;6.30;;;2.30;;
41815;SDS011;27814;53.452;-6.180;2022-12-07T01:29:12;4.70;;;2.05;;
41815;SDS011;27814;53.452;-6.180;2022-12-07T01:31:41;6.00;;;2.13;;
41815;SDS011;27814;53.452;-6.180;2022-12-07T01:34:10;6.10;;;2.40;;
41815;SDS011;27814;53.452;-6.180;2022-12-07T01:36:39;6.70;;;2.00;;
41815;SDS011;27814;53.452;-6.180;2022-12-07T01:39:08;6.78;;;2.10;;
41815;SDS011;27814;53.452;-6.180;2022-12-07T01:41:37;5.63;;;1.95;;
41815;SDS011;27814;53.452;-6.180;2022-12-07T01:44:19;6.20;;;2.00;;
41815;SDS011;27814;53.452;-6.180;2022-12-07T01:46:50;4.70;;;1.80;;
41815;SDS011;27814;53.452;-6.180;2022-12-07T01:49:24;4.13;;;1.60;;
41815;SDS011;27814;53.452;-6.180;2022-12-07T01:51:58;5.00;;;1.70;;
41815;SDS011;27814;53.452;-6.180;2022-12-07T01:54:34;7.32;;;1.77;;
41815;SDS011;27814;53.452;-6.180;2022-12-07T01:57:03;6.85;;;2.17;;
41815;SDS011;27814;53.452;-6.180;2022-12-07T01:59:35;4.47;;;1.70;;
41815;SDS011;27814;53.452;-6.180;2022-12-07T02:02:05;5.22;;;1.73;;
41815;SDS011;27814;53.452;-6.180;2022-12-07T02:04:39;5.20;;;2.13;;
41815;SDS011;27814;53.452;-6.180;2022-12-07T02:07:08;6.53;;;2.50;;
41815;SDS011;27814;53.452;-6.180;2022-12-07T02:09:37;5.80;;;2.30;;
41815;SDS011;27814;53.452;-6.180;2022-12-07T02:12:05;6.63;;;2.17;;
41815;SDS011;27814;53.452;-6.180;2022-12-07T02:14:35;5.72;;;2.10;;
41815;SDS011;27814;53.452;-6.180;2022-12-07T02:17:07;5.25;;;2.28;;
41815;SDS011;27814;53.452;-6.180;2022-12-07T02:19:49;6.53;;;2.50;;
41815;SDS011;27814;53.452;-6.180;2022-12-07T02:22:34;7.28;;;2.20;;
41815;SDS011;27814;53.452;-6.180;2022-12-07T02:25:30;7.43;;;2.15;;
41815;SDS011;27814;53.452;-6.180;2022-12-07T02:28:12;4.28;;;1.77;;
41815;SDS011;27814;53.452;-6.180;2022-12-07T02:30:55;5.30;;;2.33;;
41815;SDS011;27814;53.452;-6.180;2022-12-07T02:33:31;8.35;;;2.53;;
41815;SDS011;27814;53.452;-6.180;2022-12-07T02:36:06;5.28;;;2.20;;
41815;SDS011;27814;53.452;-6.180;2022-12-07T02:38:38;6.88;;;2.65;;
41815;SDS011;27814;53.452;-6.180;2022-12-07T02:41:12;7.45;;;1.95;;
41815;SDS011;27814;53.452;-6.180;2022-12-07T02:43:47;7.75;;;2.15;;
41815;SDS011;27814;53.452;-6.180;2022-12-07T02:46:24;5.95;;;2.30;;
41815;SDS011;27814;53.452;-6.180;2022-12-07T02:48:56;6.85;;;2.88;;
41815;SDS011;27814;53.452;-6.180;2022-12-07T02:51:29;6.50;;;2.63;;
41815;SDS011;27814;53.452;-6.180;2022-12-07T02:53:58;6.00;;;2.50;;
41815;SDS011;27814;53.452;-6.180;2022-12-07T02:56:27;7.22;;;2.65;;
41815;SDS011;27814;53.452;-6.180;2022-12-07T02:59:05;6.93;;;2.50;;
41815;SDS011;27814;53.452;-6.180;2022-12-07T03:01:41;8.00;;;2.42;;
41815;SDS011;27814;53.452;-6.180;2022-12-07T03:04:22;4.38;;;2.50;;
41815;SDS011;27814;53.452;-6.180;2022-12-07T03:07:02;7.20;;;3.03;;
41815;SDS011;27814;53.452;-6.180;2022-12-07T03:09:35;7.68;;;2.95;;
41815;SDS011;27814;53.452;-6.180;2022-12-07T03:12:12;7.55;;;2.50;;
41815;SDS011;27814;53.452;-6.180;2022-12-07T03:14:45;7.45;;;3.25;;
41815;SDS011;27814;53.452;-6.180;2022-12-07T03:17:20;10.93;;;3.92;;
41815;SDS011;27814;53.452;-6.180;2022-12-07T03:19:54;9.32;;;3.33;;
41815;SDS011;27814;53.452;-6.180;2022-12-07T03:22:25;7.75;;;3.00;;
41815;SDS011;27814;53.452;-6.180;2022-12-07T03:25:01;10.07;;;3.40;;
41815;SDS011;27814;53.452;-6.180;2022-12-07T03:27:33;8.32;;;2.95;;
41815;SDS011;27814;53.452;-6.180;2022-12-07T03:30:06;4.80;;;2.55;;
41815;SDS011;27814;53.452;-6.180;2022-12-07T03:32:44;6.68;;;2.95;;
41815;SDS011;27814;53.452;-6.180;2022-12-07T03:35:16;7.32;;;3.17;;
41815;SDS011;27814;53.452;-6.180;2022-12-07T03:37:50;6.57;;;2.77;;
41815;SDS011;27814;53.452;-6.180;2022-12-07T03:40:23;7.15;;;2.72;;
41815;SDS011;27814;53.452;-6.180;2022-12-07T03:42:57;6.70;;;2.60;;
41815;SDS011;27814;53.452;-6.180;2022-12-07T03:45:30;5.63;;;2.50;;
41815;SDS011;27814;53.452;-6.180;2022-12-07T03:48:08;5.57;;;2.33;;
41815;SDS011;27814;53.452;-6.180;2022-12-07T03:50:43;8.02;;;2.95;;
41815;SDS011;27814;53.452;-6.180;2022-12-07T03:53:18;6.75;;;3.13;;
41815;SDS011;27814;53.452;-6.180;2022-12-07T03:55:48;7.55;;;2.85;;
41815;SDS011;27814;53.452;-6.180;2022-12-07T03:58:19;6.25;;;2.78;;
41815;SDS011;27814;53.452;-6.180;2022-12-07T04:00:49;7.35;;;2.80;;
41815;SDS011;27814;53.452;-6.180;2022-12-07T04:03:20;6.60;;;2.73;;
41815;SDS011;27814;53.452;-6.180;2022-12-07T04:05:49;10.00;;;2.85;;
41815;SDS011;27814;53.452;-6.180;2022-12-07T04:08:17;8.35;;;2.60;;
41815;SDS011;27814;53.452;-6.180;2022-12-07T04:10:46;6.63;;;2.63;;
41815;SDS011;27814;53.452;-6.180;2022-12-07T04:13:15;6.30;;;2.65;;
41815;SDS011;27814;53.452;-6.180;2022-12-07T04:15:43;7.65;;;2.60;;
41815;SDS011;27814;53.452;-6.180;2022-12-07T04:18:13;8.70;;;2.80;;
41815;SDS011;27814;53.452;-6.180;2022-12-07T04:20:43;7.63;;;2.60;;
41815;SDS011;27814;53.452;-6.180;2022-12-07T04:23:13;4.40;;;2.10;;
41815;SDS011;27814;53.452;-6.180;2022-12-07T04:25:41;8.80;;;2.63;;
41815;SDS011;27814;53.452;-6.180;2022-12-07T04:28:10;8.35;;;2.30;;
41815;SDS011;27814;53.452;-6.180;2022-12-07T04:30:38;8.00;;;2.72;;
41815;SDS011;27814;53.452;-6.180;2022-12-07T04:33:07;6.68;;;2.40;;
41815;SDS011;27814;53.452;-6.180;2022-12-07T04:35:35;6.15;;;2.20;;
41815;SDS011;27814;53.452;-6.180;2022-12-07T04:38:08;5.22;;;2.40;;
41815;SDS011;27814;53.452;-6.180;2022-12-07T04:40:36;7.63;;;2.70;;
41815;SDS011;27814;53.452;-6.180;2022-12-07T04:43:05;7.63;;;2.60;;
41815;SDS011;27814;53.452;-6.180;2022-12-07T04:45:33;8.30;;;2.75;;
41815;SDS011;27814;53.452;-6.180;2022-12-07T04:48:01;6.03;;;2.40;;
41815;SDS011;27814;53.452;-6.180;2022-12-07T04:50:32;6.20;;;2.42;;
41815;SDS011;27814;53.452;-6.180;2022-12-07T04:53:15;6.85;;;2.53;;
41815;SDS011;27814;53.452;-6.180;2022-12-07T04:55:43;7.70;;;2.33;;
41815;SDS011;27814;53.452;-6.180;2022-12-07T04:58:12;6.70;;;2.67;;
41815;SDS011;27814;53.452;-6.180;2022-12-07T05:00:41;6.72;;;2.40;;
41815;SDS011;27814;53.452;-6.180;2022-12-07T05:05:53;6.55;;;2.80;;
41815;SDS011;27814;53.452;-6.180;2022-12-07T05:08:23;5.93;;;2.45;;
41815;SDS011;27814;53.452;-6.180;2022-12-07T05:10:52;8.13;;;2.53;;
41815;SDS011;27814;53.452;-6.180;2022-12-07T05:13:23;6.40;;;2.28;;
41815;SDS011;27814;53.452;-6.180;2022-12-07T05:15:52;7.50;;;2.70;;
41815;SDS011;27814;53.452;-6.180;2022-12-07T05:18:22;8.30;;;2.42;;
41815;SDS011;27814;53.452;-6.180;2022-12-07T05:20:50;6.72;;;2.50;;
41815;SDS011;27814;53.452;-6.180;2022-12-07T05:23:19;9.68;;;3.30;;
41815;SDS011;27814;53.452;-6.180;2022-12-07T05:25:50;11.05;;;2.72;;
41815;SDS011;27814;53.452;-6.180;2022-12-07T05:28:18;5.43;;;2.55;;
41815;SDS011;27814;53.452;-6.180;2022-12-07T05:30:47;7.50;;;3.08;;
41815;SDS011;27814;53.452;-6.180;2022-12-07T05:33:20;5.75;;;2.65;;
41815;SDS011;27814;53.452;-6.180;2022-12-07T05:35:50;6.47;;;2.65;;
41815;SDS011;27814;53.452;-6.180;2022-12-07T05:38:19;6.60;;;2.80;;
41815;SDS011;27814;53.452;-6.180;2022-12-07T05:40:50;6.45;;;2.53;;
41815;SDS011;27814;53.452;-6.180;2022-12-07T05:43:21;6.90;;;2.53;;
41815;SDS011;27814;53.452;-6.180;2022-12-07T05:45:51;4.78;;;2.30;;
41815;SDS011;27814;53.452;-6.180;2022-12-07T05:48:20;4.70;;;2.47;;
41815;SDS011;27814;53.452;-6.180;2022-12-07T05:50:48;5.43;;;2.58;;
41815;SDS011;27814;53.452;-6.180;2022-12-07T05:53:17;7.68;;;2.83;;
41815;SDS011;27814;53.452;-6.180;2022-12-07T05:55:51;6.28;;;2.20;;
41815;SDS011;27814;53.452;-6.180;2022-12-07T05:58:20;6.30;;;2.13;;
41815;SDS011;27814;53.452;-6.180;2022-12-07T06:01:06;7.65;;;2.63;;
41815;SDS011;27814;53.452;-6.180;2022-12-07T06:03:34;6.65;;;2.22;;
41815;SDS011;27814;53.452;-6.180;2022-12-07T06:06:05;7.47;;;2.20;;
41815;SDS011;27814;53.452;-6.180;2022-12-07T06:08:33;7.07;;;2.60;;
41815;SDS011;27814;53.452;-6.180;2022-12-07T06:11:03;7.78;;;2.47;;
41815;SDS011;27814;53.452;-6.180;2022-12-07T06:13:50;4.47;;;2.42;;
41815;SDS011;27814;53.452;-6.180;2022-12-07T06:16:19;5.07;;;2.00;;
41815;SDS011;27814;53.452;-6.180;2022-12-07T06:18:48;7.95;;;2.25;;
41815;SDS011;27814;53.452;-6.180;2022-12-07T06:21:16;7.63;;;2.65;;
41815;SDS011;27814;53.452;-6.180;2022-12-07T06:23:45;4.97;;;2.20;;
41815;SDS011;27814;53.452;-6.180;2022-12-07T06:26:16;9.70;;;2.50;;
41815;SDS011;27814;53.452;-6.180;2022-12-07T06:28:44;5.55;;;2.28;;
41815;SDS011;27814;53.452;-6.180;2022-12-07T06:31:16;6.13;;;2.05;;
41815;SDS011;27814;53.452;-6.180;2022-12-07T06:33:45;6.45;;;2.30;;
41815;SDS011;27814;53.452;-6.180;2022-12-07T06:36:15;6.38;;;2.10;;
41815;SDS011;27814;53.452;-6.180;2022-12-07T06:38:50;8.18;;;2.13;;
41815;SDS011;27814;53.452;-6.180;2022-12-07T06:41:21;6.18;;;2.15;;
41815;SDS011;27814;53.452;-6.180;2022-12-07T06:43:50;5.13;;;1.80;;
41815;SDS011;27814;53.452;-6.180;2022-12-07T06:46:21;5.82;;;2.05;;
41815;SDS011;27814;53.452;-6.180;2022-12-07T06:48:53;7.25;;;2.15;;
41815;SDS011;27814;53.452;-6.180;2022-12-07T06:51:22;3.75;;;1.98;;
41815;SDS011;27814;53.452;-6.180;2022-12-07T06:53:50;5.05;;;2.00;;
41815;SDS011;27814;53.452;-6.180;2022-12-07T06:56:20;5.63;;;2.22;;
41815;SDS011;27814;53.452;-6.180;2022-12-07T06:58:49;5.50;;;2.00;;
41815;SDS011;27814;53.452;-6.180;2022-12-07T07:01:18;5.45;;;2.05;;
41815;SDS011;27814;53.452;-6.180;2022-12-07T07:03:46;4.45;;;1.73;;
41815;SDS011;27814;53.452;-6.180;2022-12-07T07:06:15;6.93;;;1.70;;
41815;SDS011;27814;53.452;-6.180;2022-12-07T07:08:44;5.50;;;2.17;;
41815;SDS011;27814;53.452;-6.180;2022-12-07T07:11:13;5.10;;;1.90;;
41815;SDS011;27814;53.452;-6.180;2022-12-07T07:13:43;6.25;;;1.90;;
41815;SDS011;27814;53.452;-6.180;2022-12-07T07:16:12;5.80;;;2.00;;
41815;SDS011;27814;53.452;-6.180;2022-12-07T07:18:41;5.40;;;2.30;;
41815;SDS011;27814;53.452;-6.180;2022-12-07T07:21:10;4.00;;;1.95;;
41815;SDS011;27814;53.452;-6.180;2022-12-07T07:23:38;5.63;;;1.92;;
41815;SDS011;27814;53.452;-6.180;2022-12-07T07:26:07;4.93;;;2.15;;
41815;SDS011;27814;53.452;-6.180;2022-12-07T07:28:35;5.07;;;2.05;;
41815;SDS011;27814;53.452;-6.180;2022-12-07T07:31:06;6.32;;;1.92;;
41815;SDS011;27814;53.452;-6.180;2022-12-07T07:33:36;3.47;;;1.70;;
41815;SDS011;27814;53.452;-6.180;2022-12-07T07:36:05;6.57;;;2.30;;
41815;SDS011;27814;53.452;-6.180;2022-12-07T07:38:34;6.28;;;2.10;;
41815;SDS011;27814;53.452;-6.180;2022-12-07T07:41:03;5.15;;;2.05;;
41815;SDS011;27814;53.452;-6.180;2022-12-07T07:43:32;7.38;;;1.80;;
41815;SDS011;27814;53.452;-6.180;2022-12-07T07:46:01;8.70;;;2.30;;
41815;SDS011;27814;53.452;-6.180;2022-12-07T07:48:31;6.20;;;2.40;;
41815;SDS011;27814;53.452;-6.180;2022-12-07T07:50:59;6.97;;;1.90;;
41815;SDS011;27814;53.452;-6.180;2022-12-07T07:53:28;4.13;;;1.70;;
41815;SDS011;27814;53.452;-6.180;2022-12-07T07:55:59;4.85;;;2.05;;
41815;SDS011;27814;53.452;-6.180;2022-12-07T07:58:28;6.57;;;2.05;;
41815;SDS011;27814;53.452;-6.180;2022-12-07T08:00:56;6.15;;;2.08;;
41815;SDS011;27814;53.452;-6.180;2022-12-07T08:03:32;4.45;;;1.73;;
41815;SDS011;27814;53.452;-6.180;2022-12-07T08:06:03;5.47;;;2.20;;
41815;SDS011;27814;53.452;-6.180;2022-12-07T08:08:39;6.50;;;2.07;;
41815;SDS011;27814;53.452;-6.180;2022-12-07T08:11:09;3.90;;;1.73;;
41815;SDS011;27814;53.452;-6.180;2022-12-07T08:13:37;5.68;;;2.08;;
41815;SDS011;27814;53.452;-6.180;2022-12-07T08:16:07;7.00;;;2.13;;
41815;SDS011;27814;53.452;-6.180;2022-12-07T08:18:42;4.20;;;1.98;;
41815;SDS011;27814;53.452;-6.180;2022-12-07T08:21:12;5.63;;;2.15;;
41815;SDS011;27814;53.452;-6.180;2022-12-07T08:23:42;6.47;;;2.28;;
41815;SDS011;27814;53.452;-6.180;2022-12-07T08:26:11;5.00;;;1.88;;
41815;SDS011;27814;53.452;-6.180;2022-12-07T08:28:41;4.93;;;1.92;;
41815;SDS011;27814;53.452;-6.180;2022-12-07T08:31:12;7.35;;;1.90;;
41815;SDS011;27814;53.452;-6.180;2022-12-07T08:33:44;5.25;;;1.70;;
41815;SDS011;27814;53.452;-6.180;2022-12-07T08:36:13;6.33;;;2.00;;
41815;SDS011;27814;53.452;-6.180;2022-12-07T08:38:43;3.75;;;1.80;;
41815;SDS011;27814;53.452;-6.180;2022-12-07T08:41:33;6.97;;;1.95;;
41815;SDS011;27814;53.452;-6.180;2022-12-07T08:44:02;5.32;;;1.90;;
41815;SDS011;27814;53.452;-6.180;2022-12-07T08:46:32;4.03;;;1.73;;
41815;SDS011;27814;53.452;-6.180;2022-12-07T08:49:09;7.00;;;2.10;;
41815;SDS011;27814;53.452;-6.180;2022-12-07T08:51:41;5.28;;;1.75;;
41815;SDS011;27814;53.452;-6.180;2022-12-07T08:54:10;4.63;;;1.70;;
41815;SDS011;27814;53.452;-6.180;2022-12-07T08:56:41;6.60;;;2.20;;
41815;SDS011;27814;53.452;-6.180;2022-12-07T08:59:11;4.57;;;1.80;;
41815;SDS011;27814;53.452;-6.180;2022-12-07T09:01:42;6.28;;;2.00;;
41815;SDS011;27814;53.452;-6.180;2022-12-07T09:04:13;5.97;;;1.88;;
41815;SDS011;27814;53.452;-6.180;2022-12-07T09:06:42;6.43;;;2.17;;
41815;SDS011;27814;53.452;-6.180;2022-12-07T09:09:11;5.63;;;1.70;;
41815;SDS011;27814;53.452;-6.180;2022-12-07T09:11:45;6.55;;;1.70;;
41815;SDS011;27814;53.452;-6.180;2022-12-07T09:14:14;4.30;;;1.77;;
41815;SDS011;27814;53.452;-6.180;2022-12-07T09:16:43;4.40;;;2.20;;
41815;SDS011;27814;53.452;-6.180;2022-12-07T09:19:13;6.18;;;1.88;;
41815;SDS011;27814;53.452;-6.180;2022-12-07T09:21:42;5.27;;;1.90;;
41815;SDS011;27814;53.452;-6.180;2022-12-07T09:24:12;3.47;;;1.63;;
41815;SDS011;27814;53.452;-6.180;2022-12-07T09:26:41;6.15;;;2.00;;
41815;SDS011;27814;53.452;-6.180;2022-12-07T09:29:10;5.85;;;1.90;;
41815;SDS011;27814;53.452;-6.180;2022-12-07T09:31:39;4.25;;;1.55;;
41815;SDS011;27814;53.452;-6.180;2022-12-07T09:34:09;4.75;;;1.80;;
41815;SDS011;27814;53.452;-6.180;2022-12-07T09:36:39;6.82;;;1.75;;
41815;SDS011;27814;53.452;-6.180;2022-12-07T09:39:09;6.13;;;1.77;;
41815;SDS011;27814;53.452;-6.180;2022-12-07T09:41:38;5.18;;;1.83;;
41815;SDS011;27814;53.452;-6.180;2022-12-07T09:44:10;6.00;;;2.17;;
41815;SDS011;27814;53.452;-6.180;2022-12-07T09:46:45;4.22;;;1.45;;
41815;SDS011;27814;53.452;-6.180;2022-12-07T09:49:16;8.40;;;2.08;;
41815;SDS011;27814;53.452;-6.180;2022-12-07T09:51:55;5.10;;;1.58;;
41815;SDS011;27814;53.452;-6.180;2022-12-07T09:54:31;3.30;;;1.58;;
41815;SDS011;27814;53.452;-6.180;2022-12-07T09:57:03;4.05;;;1.52;;
41815;SDS011;27814;53.452;-6.180;2022-12-07T09:59:32;5.85;;;1.52;;
41815;SDS011;27814;53.452;-6.180;2022-12-07T10:02:19;6.33;;;1.70;;
41815;SDS011;27814;53.452;-6.180;2022-12-07T10:05:00;6.28;;;1.60;;
41815;SDS011;27814;53.452;-6.180;2022-12-07T10:07:52;4.03;;;1.40;;
41815;SDS011;27814;53.452;-6.180;2022-12-07T10:10:23;5.68;;;1.85;;
41815;SDS011;27814;53.452;-6.180;2022-12-07T10:12:58;4.70;;;1.42;;
41815;SDS011;27814;53.452;-6.180;2022-12-07T10:15:42;6.43;;;1.52;;
41815;SDS011;27814;53.452;-6.180;2022-12-07T10:21:10;8.30;;;1.88;;
41815;SDS011;27814;53.452;-6.180;2022-12-07T10:23:59;4.63;;;1.70;;
41815;SDS011;27814;53.452;-6.180;2022-12-07T10:26:30;4.32;;;1.50;;
41815;SDS011;27814;53.452;-6.180;2022-12-07T10:29:02;5.78;;;1.52;;
41815;SDS011;27814;53.452;-6.180;2022-12-07T10:31:49;4.43;;;1.17;;
41815;SDS011;27814;53.452;-6.180;2022-12-07T10:34:23;4.88;;;1.63;;
41815;SDS011;27814;53.452;-6.180;2022-12-07T10:36:53;5.20;;;1.67;;
41815;SDS011;27814;53.452;-6.180;2022-12-07T10:39:41;3.97;;;1.42;;
41815;SDS011;27814;53.452;-6.180;2022-12-07T10:42:18;3.37;;;1.37;;
41815;SDS011;27814;53.452;-6.180;2022-12-07T10:44:48;4.40;;;1.52;;
41815;SDS011;27814;53.452;-6.180;2022-12-07T10:47:20;4.72;;;1.33;;
41815;SDS011;27814;53.452;-6.180;2022-12-07T10:50:05;5.05;;;1.40;;
41815;SDS011;27814;53.452;-6.180;2022-12-07T10:56:04;4.13;;;2.17;;
41815;SDS011;27814;53.452;-6.180;2022-12-07T10:58:54;5.53;;;1.30;;
41815;SDS011;27814;53.452;-6.180;2022-12-07T11:01:31;2.15;;;0.98;;
41815;SDS011;27814;53.452;-6.180;2022-12-07T11:04:18;4.60;;;1.88;;
41815;SDS011;27814;53.452;-6.180;2022-12-07T11:06:54;4.55;;;1.50;;
41815;SDS011;27814;53.452;-6.180;2022-12-07T11:09:36;3.45;;;1.00;;
41815;SDS011;27814;53.452;-6.180;2022-12-07T11:12:41;3.28;;;1.10;;
41815;SDS011;27814;53.452;-6.180;2022-12-07T11:15:18;3.30;;;1.10;;
41815;SDS011;27814;53.452;-6.180;2022-12-07T11:17:53;2.97;;;1.30;;
41815;SDS011;27814;53.452;-6.180;2022-12-07T11:20:40;5.43;;;0.65;;
41815;SDS011;27814;53.452;-6.180;2022-12-07T11:23:15;3.00;;;0.70;;
41815;SDS011;27814;53.452;-6.180;2022-12-07T11:25:54;3.35;;;1.10;;
41815;SDS011;27814;53.452;-6.180;2022-12-07T11:28:39;5.82;;;1.25;;
41815;SDS011;27814;53.452;-6.180;2022-12-07T11:31:24;4.00;;;0.88;;
41815;SDS011;27814;53.452;-6.180;2022-12-07T11:34:05;3.67;;;0.60;;
41815;SDS011;27814;53.452;-6.180;2022-12-07T11:36:45;4.07;;;0.80;;
41815;SDS011;27814;53.452;-6.180;2022-12-07T11:39:20;2.83;;;0.60;;
41815;SDS011;27814;53.452;-6.180;2022-12-07T11:41:55;3.45;;;0.77;;
41815;SDS011;27814;53.452;-6.180;2022-12-07T11:44:39;1.77;;;0.53;;
41815;SDS011;27814;53.452;-6.180;2022-12-07T11:47:16;3.15;;;0.65;;
41815;SDS011;27814;53.452;-6.180;2022-12-07T11:49:53;4.70;;;0.93;;
41815;SDS011;27814;53.452;-6.180;2022-12-07T11:52:25;2.40;;;0.60;;
41815;SDS011;27814;53.452;-6.180;2022-12-07T11:54:59;2.83;;;0.60;;
41815;SDS011;27814;53.452;-6.180;2022-12-07T11:57:32;2.47;;;0.70;;
41815;SDS011;27814;53.452;-6.180;2022-12-07T12:00:12;5.95;;;2.55;;
41815;SDS011;27814;53.452;-6.180;2022-12-07T12:02:43;10.13;;;2.50;;
41815;SDS011;27814;53.452;-6.180;2022-12-07T12:05:18;3.63;;;1.48;;
41815;SDS011;27814;53.452;-6.180;2022-12-07T12:07:50;3.33;;;1.30;;
41815;SDS011;27814;53.452;-6.180;2022-12-07T12:10:51;2.85;;;0.82;;
41815;SDS011;27814;53.452;-6.180;2022-12-07T12:13:39;3.10;;;0.68;;
41815;SDS011;27814;53.452;-6.180;2022-12-07T12:17:01;2.60;;;0.90;;
41815;SDS011;27814;53.452;-6.180;2022-12-07T12:19:57;2.53;;;0.70;;
41815;SDS011;27814;53.452;-6.180;2022-12-07T12:22:32;4.13;;;0.80;;
41815;SDS011;27814;53.452;-6.180;2022-12-07T12:25:04;2.53;;;0.77;;
41815;SDS011;27814;53.452;-6.180;2022-12-07T12:27:37;2.83;;;0.60;;
41815;SDS011;27814;53.452;-6.180;2022-12-07T12:30:23;3.50;;;0.77;;
41815;SDS011;27814;53.452;-6.180;2022-12-07T12:33:04;2.05;;;0.52;;
41815;SDS011;27814;53.452;-6.180;2022-12-07T12:35:43;3.13;;;0.70;;
41815;SDS011;27814;53.452;-6.180;2022-12-07T12:38:32;1.42;;;0.60;;
41815;SDS011;27814;53.452;-6.180;2022-12-07T12:41:01;1.30;;;0.50;;
41815;SDS011;27814;53.452;-6.180;2022-12-07T12:43:44;2.30;;;0.70;;
41815;SDS011;27814;53.452;-6.180;2022-12-07T12:49:34;2.92;;;0.60;;
41815;SDS011;27814;53.452;-6.180;2022-12-07T12:58:22;4.00;;;1.00;;
41815;SDS011;27814;53.452;-6.180;2022-12-07T13:04:23;2.35;;;0.80;;
41815;SDS011;27814;53.452;-6.180;2022-12-07T13:10:21;2.63;;;0.82;;
41815;SDS011;27814;53.452;-6.180;2022-12-07T13:13:08;1.63;;;0.68;;
41815;SDS011;27814;53.452;-6.180;2022-12-07T13:18:58;2.60;;;0.68;;
41815;SDS011;27814;53.452;-6.180;2022-12-07T13:21:42;2.63;;;0.82;;
41815;SDS011;27814;53.452;-6.180;2022-12-07T13:24:15;3.40;;;0.80;;
41815;SDS011;27814;53.452;-6.180;2022-12-07T13:26:46;2.92;;;0.93;;
41815;SDS011;27814;53.452;-6.180;2022-12-07T13:29:15;4.28;;;1.08;;
41815;SDS011;27814;53.452;-6.180;2022-12-07T13:31:46;2.72;;;0.75;;
41815;SDS011;27814;53.452;-6.180;2022-12-07T13:34:30;4.28;;;0.80;;
41815;SDS011;27814;53.452;-6.180;2022-12-07T13:37:00;2.72;;;0.80;;
41815;SDS011;27814;53.452;-6.180;2022-12-07T13:39:36;2.50;;;0.90;;
41815;SDS011;27814;53.452;-6.180;2022-12-07T13:42:18;4.32;;;0.80;;
41815;SDS011;27814;53.452;-6.180;2022-12-07T13:44:52;3.42;;;0.93;;
41815;SDS011;27814;53.452;-6.180;2022-12-07T13:47:30;4.00;;;0.93;;
41815;SDS011;27814;53.452;-6.180;2022-12-07T13:50:21;2.80;;;1.00;;
41815;SDS011;27814;53.452;-6.180;2022-12-07T13:52:54;3.88;;;0.75;;
41815;SDS011;27814;53.452;-6.180;2022-12-07T13:55:26;2.95;;;0.80;;
41815;SDS011;27814;53.452;-6.180;2022-12-07T13:57:55;1.55;;;0.68;;
41815;SDS011;27814;53.452;-6.180;2022-12-07T14:00:25;2.88;;;0.73;;
41815;SDS011;27814;53.452;-6.180;2022-12-07T14:02:55;4.28;;;0.70;;
41815;SDS011;27814;53.452;-6.180;2022-12-07T14:05:27;2.85;;;0.70;;
41815;SDS011;27814;53.452;-6.180;2022-12-07T14:07:58;4.45;;;0.95;;
41815;SDS011;27814;53.452;-6.180;2022-12-07T14:10:30;3.90;;;1.15;;
41815;SDS011;27814;53.452;-6.180;2022-12-07T14:13:00;3.25;;;1.00;;
41815;SDS011;27814;53.452;-6.180;2022-12-07T14:15:53;2.17;;;0.90;;
41815;SDS011;27814;53.452;-6.180;2022-12-07T14:18:27;4.93;;;0.90;;
41815;SDS011;27814;53.452;-6.180;2022-12-07T14:21:03;3.45;;;0.90;;
41815;SDS011;27814;53.452;-6.180;2022-12-07T14:23:32;2.85;;;0.90;;
41815;SDS011;27814;53.452;-6.180;2022-12-07T14:26:06;3.40;;;1.00;;
41815;SDS011;27814;53.452;-6.180;2022-12-07T14:28:39;3.25;;;0.70;;
41815;SDS011;27814;53.452;-6.180;2022-12-07T14:31:10;1.80;;;0.60;;
41815;SDS011;27814;53.452;-6.180;2022-12-07T14:33:50;2.13;;;0.63;;
41815;SDS011;27814;53.452;-6.180;2022-12-07T14:36:19;2.92;;;0.60;;
41815;SDS011;27814;53.452;-6.180;2022-12-07T14:38:47;2.55;;;0.63;;
41815;SDS011;27814;53.452;-6.180;2022-12-07T14:41:17;2.58;;;0.70;;
41815;SDS011;27814;53.452;-6.180;2022-12-07T14:44:08;3.53;;;0.70;;
41815;SDS011;27814;53.452;-6.180;2022-12-07T14:46:58;1.50;;;0.60;;
41815;SDS011;27814;53.452;-6.180;2022-12-07T14:49:48;1.75;;;0.57;;
41815;SDS011;27814;53.452;-6.180;2022-12-07T14:52:19;2.08;;;0.60;;
41815;SDS011;27814;53.452;-6.180;2022-12-07T14:55:12;4.13;;;1.02;;
41815;SDS011;27814;53.452;-6.180;2022-12-07T14:57:48;5.20;;;2.10;;
41815;SDS011;27814;53.452;-6.180;2022-12-07T15:00:17;6.50;;;3.03;;
41815;SDS011;27814;53.452;-6.180;2022-12-07T15:02:47;9.93;;;4.45;;
41815;SDS011;27814;53.452;-6.180;2022-12-07T15:05:16;21.92;;;9.82;;
41815;SDS011;27814;53.452;-6.180;2022-12-07T15:07:47;7.03;;;2.47;;
41815;SDS011;27814;53.452;-6.180;2022-12-07T15:10:18;6.25;;;3.13;;
41815;SDS011;27814;53.452;-6.180;2022-12-07T15:12:51;3.38;;;1.42;;
41815;SDS011;27814;53.452;-6.180;2022-12-07T15:15:20;3.38;;;0.75;;
41815;SDS011;27814;53.452;-6.180;2022-12-07T15:17:48;3.00;;;1.27;;
41815;SDS011;27814;53.452;-6.180;2022-12-07T15:20:21;7.22;;;2.42;;
41815;SDS011;27814;53.452;-6.180;2022-12-07T15:22:49;3.03;;;1.20;;
41815;SDS011;27814;53.452;-6.180;2022-12-07T15:25:17;6.10;;;1.60;;
41815;SDS011;27814;53.452;-6.180;2022-12-07T15:27:46;5.93;;;2.28;;
41815;SDS011;27814;53.452;-6.180;2022-12-07T15:30:16;3.40;;;1.05;;
41815;SDS011;27814;53.452;-6.180;2022-12-07T15:32:48;2.88;;;1.20;;
41815;SDS011;27814;53.452;-6.180;2022-12-07T15:35:18;5.30;;;1.20;;
41815;SDS011;27814;53.452;-6.180;2022-12-07T15:37:47;5.18;;;2.00;;